Latest Weather Observations for Troughton Island

IDW60801

Issued at 11:33 am WST Monday 27 January 2020 (issued every 10 minutes, with the page automatically refreshed every 10 minutes)

About weather observations | Map of weather stations | Latest weather observations for WA | Other Formats
Station Details ID: 001007 Name: TROUGHTON ISLAND Lat: -13.75 Lon: 126.15 Height: 6.0 m
Data from the previous 72 hours. | See also: Recent months at Troughton Island
Date/Time
WST
Temp
°C
App
Temp
°C
Dew
Point
°C
Rel
Hum
%
Delta-T
°C
Wind Press
QNH
hPa
Press
MSL
hPa
Rain since
9am
mm
Dir  Spd
km/h
Gust
km/h
Spd
kts
Gust
kts
27/11:30am 31.9 35.0 26.9 75 3.6 W 24 32 13 17 1009.1 1009.0 0.0
27/11:00am 31.6 33.9 26.2 73 3.9 WSW 26 30 14 16 1009.6 1009.5 0.0
27/10:30am 31.6 34.4 26.4 74 3.7 W 24 30 13 16 1010.0 1009.9 0.0
27/10:00am 31.6 35.1 26.8 75 3.5 W 22 26 12 14 1010.2 1010.1 0.0
27/09:30am 31.3 34.2 26.6 76 3.4 SW 24 30 13 16 1010.2 1010.1 0.0
27/09:00am 31.1 34.2 26.8 78 3.1 W 24 28 13 15 1010.3 1010.2 0.0
27/08:30am 30.7 34.2 26.8 80 2.8 W 22 28 12 15 1010.2 1010.1 0.0
27/08:00am 30.7 34.5 27.3 82 2.5 WSW 22 28 12 15 1010.0 1009.9 0.0
27/07:30am 30.2 33.9 26.6 81 2.6 W 20 24 11 13 1009.8 1009.7 0.0
27/07:00am 29.9 33.5 26.5 82 2.4 WSW 20 24 11 13 1009.6 1009.5 0.0
27/06:30am 29.3 31.9 26.1 83 2.3 W 24 28 13 15 1009.5 1009.4 0.0
27/06:00am 28.9 31.6 26.3 86 1.9 W 24 26 13 14 1009.2 1009.1 0.0
27/05:30am 28.8 31.1 26.2 86 1.8 W 26 30 14 16 1008.7 1008.6 0.0
27/05:00am 28.9 32.1 26.5 87 1.7 W 22 28 12 15 1008.4 1008.3 0.0
27/04:30am 28.9 31.6 26.3 86 1.9 W 24 30 13 16 1008.1 1008.0 0.0
27/04:00am 29.0 31.6 26.6 87 1.7 W 26 30 14 16 1008.0 1007.9 0.0
27/03:30am 29.1 31.7 26.7 87 1.7 W 26 30 14 16 1008.0 1007.9 0.0
27/03:00am 29.1 31.5 26.3 85 2.0 W 26 32 14 17 1008.0 1007.9 0.0
27/02:30am 29.1 31.9 26.9 88 1.6 W 26 30 14 16 1008.0 1007.9 0.0
27/02:00am 29.2 31.5 26.8 87 1.7 W 28 33 15 18 1008.1 1008.0 0.0
27/01:30am 29.2 31.9 26.8 87 1.7 W 26 32 14 17 1008.3 1008.2 0.0
27/01:00am 29.2 31.5 26.8 87 1.7 W 28 33 15 18 1008.4 1008.3 0.0
27/12:30am 29.3 31.8 27.1 88 1.6 W 28 33 15 18 1008.7 1008.6 0.0
27/12:00am 29.2 31.3 27.0 88 1.6 W 30 35 16 19 1008.9 1008.8 0.0
 
Date/Time
WST
Temp
°C
App
Temp
°C
Dew
Point
°C
Rel
Hum
%
Delta-T
°C
Wind Press
QNH
hPa
Press
MSL
hPa
Rain since
9am
mm
Dir  Spd
km/h
Gust
km/h
Spd
kts
Gust
kts
26/11:30pm 29.3 32.2 27.1 88 1.6 W 26 32 14 17 1009.2 1009.1 0.0
26/11:00pm 29.4 32.0 27.2 88 1.6 W 28 32 15 17 1009.2 1009.1 0.0
26/10:30pm 29.4 31.5 27.0 87 1.7 W 30 35 16 19 1009.3 1009.2 0.0
26/10:00pm 29.4 32.4 27.2 88 1.6 W 26 32 14 17 1009.2 1009.1 0.0
26/09:30pm 29.5 32.4 27.1 87 1.7 W 26 30 14 16 1009.0 1008.9 0.0
26/09:00pm 29.5 32.4 27.1 87 1.7 W 26 32 14 17 1008.9 1008.8 0.0
26/08:30pm 29.4 31.9 27.0 87 1.7 W 28 30 15 16 1008.4 1008.3 0.0
26/08:00pm 29.4 32.2 27.0 87 1.7 W 26 30 14 16 1008.1 1008.0 0.0
26/07:30pm 29.3 32.1 26.9 87 1.7 W 26 32 14 17 1007.8 1007.7 0.0
26/07:00pm 29.4 32.2 27.0 87 1.7 W 26 30 14 16 1007.6 1007.5 0.0
26/06:30pm 29.5 32.4 27.1 87 1.7 W 26 30 14 16 1007.1 1007.0 0.0
26/06:00pm 29.7 32.7 26.7 84 2.2 WSW 24 28 13 15 1006.5 1006.4 0.0
26/05:30pm 29.7 32.7 26.7 84 2.2 WSW 24 28 13 15 1006.4 1006.3 0.0
26/05:00pm 29.9 32.5 26.7 83 2.3 WNW 26 30 14 16 1006.1 1006.0 0.0
26/04:30pm 30.2 32.8 26.6 81 2.6 WNW 26 28 14 15 1005.9 1005.8 0.0
26/04:00pm 31.2 34.1 27.1 79 3.0 WNW 26 32 14 17 1006.0 1005.9 0.0
26/03:30pm 31.7 34.3 27.2 77 3.3 WNW 28 32 15 17 1006.3 1006.2 0.0
26/03:00pm 31.7 34.3 26.7 75 3.6 W 26 32 14 17 1006.6 1006.5 0.0
26/02:30pm 31.5 34.4 26.5 75 3.6 W 24 28 13 15 1006.9 1006.8 0.0
26/02:00pm 31.7 34.8 26.9 76 3.5 W 24 30 13 16 1007.4 1007.3 0.0
26/01:30pm 31.8 34.9 26.8 75 3.6 W 24 30 13 16 1007.9 1007.8 0.0
26/01:00pm 31.4 33.7 25.7 71 4.1 W 24 30 13 16 1008.2 1008.1 0.0
26/12:30pm 31.1 33.6 25.9 74 3.7 WSW 24 28 13 15 1008.6 1008.5 0.0
26/12:00pm 31.4 33.4 25.7 71 4.1 WSW 26 30 14 16 1009.0 1008.9 0.0
26/11:30am 31.8 34.4 26.6 74 3.7 WSW 26 32 14 17 1009.2 1009.1 0.0
26/11:00am 31.2 33.4 25.5 71 4.0 SW 24 30 13 16 1009.9 1009.8 0.0
26/10:30am 31.0 33.1 25.4 72 4.0 SW 24 30 13 16 1010.1 1010.0 0.0
26/10:00am 30.6 32.7 25.4 74 3.7 SSW 24 28 13 15 1010.3 1010.2 0.0
26/09:30am 30.3 32.9 24.0 69 4.4 SSW 17 20 9 11 1010.6 1010.5 0.0
26/09:00am 30.8 33.5 24.2 68 4.6 SW 17 22 9 12 1010.7 1010.6 0.0
26/08:30am 29.7 32.8 24.1 72 3.9 SSW 15 17 8 9 1010.5 1010.4 0.0
26/08:00am 30.0 33.7 24.6 73 3.8 SW 13 17 7 9 1010.1 1010.0 0.0
26/07:30am 29.7 33.1 24.1 72 3.9 SSW 13 15 7 8 1009.5 1009.4 0.0
26/07:00am 28.6 31.8 23.7 75 3.4 SSW 13 15 7 8 1009.1 1009.0 0.0
26/06:30am 28.1 32.4 23.7 77 3.0 S 7 11 4 6 1008.9 1008.8 0.0
26/06:00am 27.5 31.6 23.3 78 2.9 SSE 7 9 4 5 1008.8 1008.7 0.0
26/05:30am 27.0 31.3 23.7 82 2.3 S 7 9 4 5 1008.5 1008.4 0.0
26/05:00am 27.2 31.4 23.4 80 2.6 SSW 7 11 4 6 1008.3 1008.2 0.0
26/04:30am 27.4 30.2 24.3 83 2.1 S 17 20 9 11 1008.3 1008.2 0.0
26/04:00am 27.4 30.1 24.1 82 2.3 S 17 22 9 12 1008.0 1007.9 0.0
26/03:30am 27.3 30.4 25.7 91 1.1 SSW 20 24 11 13 1008.0 1007.9 0.0
26/03:00am 27.8 31.0 25.8 89 1.4 WSW 20 28 11 15 1007.9 1007.8 0.0
26/02:30am 28.0 33.8 26.0 89 1.4 WNW 7 11 4 6 1007.7 1007.6 0.0
26/02:00am 28.1 32.5 26.3 90 1.3 NNE 15 17 8 9 1007.3 1007.2 0.0
26/01:30am 27.9 32.3 25.7 88 1.6 NNE 13 17 7 9 1007.3 1007.2 0.0
26/01:00am 27.6 32.1 25.8 90 1.3 NNE 13 17 7 9 1007.7 1007.6 0.0
26/12:30am 27.3 32.2 25.3 89 1.4 NE 9 11 5 6 1008.0 1007.9 0.0
26/12:00am 27.0 33.1 24.5 86 1.7 CALM 0 0 0 0 1008.6 1008.5 0.0
 
Date/Time
WST
Temp
°C
App
Temp
°C
Dew
Point
°C
Rel
Hum
%
Delta-T
°C
Wind Press
QNH
hPa
Press
MSL
hPa
Rain since
9am
mm
Dir  Spd
km/h
Gust
km/h
Spd
kts
Gust
kts
25/11:30pm 27.0 31.4 24.5 86 1.7 SW 9 11 5 6 1009.2 1009.1 0.0
25/11:00pm 27.1 31.7 25.3 90 1.3 SSW 11 15 6 8 1009.5 1009.4 0.0
25/10:30pm 27.0 32.4 26.0 94 0.7 SSE 9 11 5 6 1009.7 1009.6 0.0
25/10:00pm 26.6 31.0 25.6 94 0.7 SSE 13 20 7 11 1010.1 1010.0 0.0
25/09:30pm 26.9 29.4 25.3 91 1.1 SSE 22 33 12 18 1010.4 1010.3 0.0
25/09:00pm 27.9 31.4 24.9 84 2.1 SSE 15 19 8 10 1010.1 1010.0 0.0
25/08:30pm 27.8 30.8 24.6 83 2.2 SSE 17 33 9 18 1010.0 1009.9 0.0
25/08:00pm 29.3 33.2 26.1 83 2.3 WSW 17 20 9 11 1009.6 1009.5 0.0
25/07:30pm 29.1 33.0 26.1 84 2.1 W 17 19 9 10 1008.9 1008.8 0.0
25/07:00pm 29.1 32.5 25.9 83 2.3 W 19 20 10 11 1008.4 1008.3 0.0
25/06:30pm 29.2 32.1 26.0 83 2.3 WNW 22 26 12 14 1007.6 1007.5 0.0
25/06:00pm 29.4 31.7 26.2 83 2.3 NW 26 32 14 17 1007.3 1007.2 0.0
25/05:30pm 30.0 32.3 26.2 80 2.7 WNW 26 30 14 16 1007.3 1007.2 0.0
25/05:00pm 30.5 32.4 26.7 80 2.7 WNW 30 35 16 19 1007.0 1006.9 0.0
25/04:30pm 30.7 32.2 26.2 77 3.2 WNW 30 35 16 19 1006.5 1006.4 0.0
25/04:00pm 30.9 32.0 26.2 76 3.4 WNW 32 35 17 19 1006.3 1006.2 0.0
25/03:30pm 31.1 31.9 25.7 73 3.8 WNW 32 39 17 21 1006.3 1006.2 0.0
25/03:00pm 31.4 32.7 26.4 75 3.6 WNW 32 37 17 20 1006.4 1006.3 0.0
25/02:30pm 31.5 33.4 26.7 75 3.5 WNW 30 35 16 19 1006.8 1006.7 0.0
25/02:00pm 31.4 32.9 26.2 74 3.7 W 30 33 16 18 1007.2 1007.1 0.0
25/01:30pm 31.4 33.4 26.4 75 3.6 W 28 33 15 18 1007.6 1007.5 0.0
25/01:00pm 30.6 33.1 26.5 79 2.9 W 26 32 14 17 1008.0 1007.9 0.0
25/12:30pm 31.2 33.0 26.0 74 3.7 W 28 33 15 18 1008.3 1008.2 0.0
25/12:00pm 31.1 33.3 26.1 75 3.6 W 26 32 14 17 1008.8 1008.7 0.0
25/11:30am 31.0 33.2 26.0 74 3.6 WNW 26 30 14 16 1009.3 1009.2 0.0
25/11:00am 31.2 33.9 26.2 75 3.6 W 24 30 13 16 1009.8 1009.7 0.0
25/10:30am 30.9 33.4 25.9 74 3.6 WSW 24 28 13 15 1010.0 1009.9 0.0
25/10:00am 31.2 33.9 26.2 75 3.6 WSW 24 28 13 15 1010.1 1010.0 0.0
25/09:30am 31.1 33.9 26.4 76 3.4 WSW 24 30 13 16 1010.3 1010.2 0.0
25/09:00am 30.7 32.5 26.0 76 3.4 W 28 32 15 17 1010.2 1010.1 0.0
25/08:30am 30.2 32.3 25.9 78 3.1 W 26 32 14 17 1010.1 1010.0 0.0
25/08:00am 30.3 32.1 26.0 78 3.1 WSW 28 32 15 17 1009.8 1009.7 0.0
25/07:30am 29.7 31.4 25.9 80 2.7 W 28 32 15 17 1009.7 1009.6 0.0
25/07:00am 29.4 31.0 25.8 81 2.6 W 28 32 15 17 1009.2 1009.1 0.0
25/06:30am 28.9 30.5 25.7 83 2.3 W 28 33 15 18 1009.0 1008.9 0.0
25/06:00am 28.7 30.7 25.7 84 2.1 W 26 32 14 17 1008.7 1008.6 0.0
25/05:30am 28.5 30.2 25.9 86 1.8 W 28 32 15 17 1008.4 1008.3 0.0
25/05:00am 28.6 31.1 26.0 86 1.8 W 24 30 13 16 1008.2 1008.1 0.0
25/04:30am 28.6 30.9 26.2 87 1.7 W 26 32 14 17 1008.0 1007.9 0.0
25/04:00am 28.7 30.9 26.1 86 1.8 W 26 30 14 16 1007.8 1007.7 0.0
25/03:30am 28.8 31.1 26.2 86 1.8 WSW 26 32 14 17 1007.8 1007.7 0.0
25/03:00am 28.8 30.8 26.4 87 1.7 W 28 32 15 17 1007.9 1007.8 0.0
25/02:30am 28.9 30.9 26.3 86 1.9 W 28 32 15 17 1007.9 1007.8 0.0
25/02:00am 28.9 30.5 26.3 86 1.9 WSW 30 35 16 19 1008.0 1007.9 0.0
25/01:30am 29.0 30.8 26.6 87 1.7 WSW 30 35 16 19 1008.3 1008.2 0.0
25/01:00am 29.0 31.0 26.4 86 1.9 W 28 33 15 18 1008.4 1008.3 0.0
25/12:30am 29.0 30.7 26.4 86 1.9 W 30 33 16 18 1008.7 1008.6 0.0
25/12:00am 29.1 30.8 26.5 86 1.9 W 30 35 16 19 1009.0 1008.9 0.0
 
Date/Time
WST
Temp
°C
App
Temp
°C
Dew
Point
°C
Rel
Hum
%
Delta-T
°C
Wind Press
QNH
hPa
Press
MSL
hPa
Rain since
9am
mm
Dir  Spd
km/h
Gust
km/h
Spd
kts
Gust
kts
24/11:30pm 29.2 30.3 26.2 84 2.1 W 32 37 17 20 1009.2 1009.1 0.0
24/11:00pm 29.3 30.1 25.9 82 2.4 WSW 33 37 18 20 1009.5 1009.4 0.0
24/10:30pm 29.3 29.9 25.7 81 2.5 WSW 33 39 18 21 1009.7 1009.6 0.0
24/10:00pm 29.4 30.3 25.8 81 2.6 WSW 32 39 17 21 1009.7 1009.6 0.0
24/09:30pm 29.4 30.4 25.4 79 2.8 W 30 37 16 20 1009.7 1009.6 0.0
24/09:00pm 29.2 30.7 26.2 84 2.1 W 30 33 16 18 1009.4 1009.3 0.0
24/08:30pm 29.0 31.0 26.4 86 1.9 W 28 33 15 18 1009.2 1009.1 0.0
24/08:00pm 28.8 30.7 26.2 86 1.9 WNW 28 33 15 18 1008.7 1008.6 0.0
24/07:30pm 28.9 31.4 26.5 87 1.7 WNW 26 32 14 17 1008.4 1008.3 0.0
24/07:00pm 29.0 31.8 26.4 86 1.9 WNW 24 28 13 15 1007.9 1007.8 0.0
24/06:30pm 29.1 31.6 26.5 86 1.9 WNW 26 30 14 16 1007.7 1007.6 0.0
24/06:00pm 29.3 32.4 26.3 84 2.1 WNW 22 26 12 14 1007.2 1007.1 0.0
24/05:30pm 29.9 32.6 26.3 81 2.6 WNW 24 28 13 15 1006.8 1006.7 0.0
24/05:00pm 30.3 32.5 26.0 78 3.1 WNW 26 32 14 17 1006.3 1006.2 0.0
24/04:30pm 30.5 31.8 25.8 76 3.3 W 30 35 16 19 1006.2 1006.1 0.0
24/04:00pm 30.8 32.1 25.8 74 3.6 W 30 37 16 20 1006.4 1006.3 0.0
24/03:30pm 31.1 32.1 25.4 71 4.0 W 30 33 16 18 1006.5 1006.4 0.0
24/03:00pm 30.3 32.2 26.2 79 2.9 W 28 33 15 18 1006.8 1006.7 0.0
24/02:30pm 30.5 32.2 26.4 79 2.9 W 30 35 16 19 1007.2 1007.1 0.0
24/02:00pm 30.9 32.2 26.4 77 3.2 W 32 39 17 21 1007.5 1007.4 0.0
24/01:30pm 31.2 32.4 26.5 76 3.4 W 33 39 18 21 1007.6 1007.5 0.0
24/01:00pm 31.0 31.4 26.5 77 3.2 W 37 43 20 23 1007.7 1007.6 0.0
24/12:30pm 31.5 33.0 26.7 75 3.5 W 32 37 17 20 1008.4 1008.3 0.0
24/12:00pm 30.7 32.0 26.4 78 3.1 W 32 35 17 19 1008.7 1008.6 0.0

Other formats

Comma delimited format used in spreadsheet applications
http://www.bom.gov.au/fwo/IDW60801/IDW60801.94102.axf

JavaScript Object Notation format (JSON) in row-major order
http://www.bom.gov.au/fwo/IDW60801/IDW60801.94102.json

Data quality

Most of these data are generated automatically and are frequently updated. Quality checks on data are not normally performed. It is possible for incorrect values to appear. Refer to information at About Latest Weather Observations and please check the disclaimer before using these data.